Thursday, September 20, 2018, 12:30 PM EDT
Back to Local

KLCI, Laconia, Laconia Municipal Airport

Location: Laconia, NH, United States Lat: 43.567
Local Time: 12:30 PM EDT (16:30 GMT) Lon: -71.417
Time Zone: US/Eastern Elev: 544 ft

Show me the last for .
Show Decoded

2018-09-20 11:56 METAR KLCI 201556Z AUTO 09005KT 10SM FEW050 16/11 A3028 RMK AO2 SLP272 T01560111
                 PWINO =
2018-09-20 10:56 METAR KLCI 201456Z AUTO 08007KT 10SM BKN055 16/11 A3028 RMK AO2 SLP270 T01560111
                 51016 PWINO =
2018-09-20 10:35 METAR KLCI 201435Z AUTO 06005KT 10SM FEW020 BKN055 16/11 A3029 RMK AO2 PWINO =
2018-09-20 10:08 METAR KLCI 201408Z AUTO 09005KT 10SM BKN018 OVC049 16/11 A3028 RMK AO2 PWINO =
2018-09-20 09:56 METAR KLCI 201356Z AUTO 07005KT 10SM SCT018 OVC049 16/11 A3027 RMK AO2 SLP268
                 T01560111 PWINO =
2018-09-20 09:25 METAR KLCI 201325Z AUTO 08009KT 10SM FEW019 SCT033 OVC049 15/11 A3027 RMK AO2
                 PWINO =
2018-09-20 08:56 METAR KLCI 201256Z AUTO 05005KT 10SM BKN017 OVC024 14/11 A3027 RMK AO2 SLP268
                 T01440111 PWINO =
2018-09-20 07:56 METAR KLCI 201156Z AUTO 09005KT 10SM SCT017 BKN023 OVC030 14/12 A3023 RMK AO2
                 SLP254 T01440117 10144 20139 53021 PWINO =
2018-09-20 06:56 METAR KLCI 201056Z AUTO 07009KT 10SM BKN015 OVC023 14/12 A3020 RMK AO2 SLP245
                 T01390117 PWINO =
2018-09-20 05:56 METAR KLCI 200956Z AUTO 06007KT 10SM BKN015 BKN021 OVC050 14/12 A3018 RMK AO2
                 SLP238 T01390117 PWINO =
2018-09-20 04:56 METAR KLCI 200856Z AUTO 06008KT 10SM BKN017 OVC023 14/12 A3017 RMK AO2 SLP233
                 T01440117 51005 PWINO =
2018-09-20 02:56 METAR KLCI 200656Z AUTO 06006KT 10SM BKN017 OVC024 14/11 A3017 RMK AO2 SLP232
                 T01440111 PWINO =
2018-09-20 01:56 METAR KLCI 200556Z AUTO 07009KT 10SM OVC026 14/12 A3016 RMK AO2 SLP228 T01440117
                 10161 20144 51012 PWINO =
2018-09-20 00:56 METAR KLCI 200456Z AUTO 07010KT 10SM FEW020 OVC026 15/11 A3015 RMK AO2 SLP225
                 T01500111 PWINO =
2018-09-19 23:56 METAR KLCI 200356Z AUTO 07006KT 10SM SCT020 OVC026 15/12 A3014 RMK AO2 SLP224
                 T01500117 401940150 PWINO =
2018-09-19 22:56 METAR KLCI 200256Z AUTO 08007KT 10SM BKN022 BKN039 OVC050 16/12 A3012 RMK AO2
                 SLP216 T01560117 50004 PWINO =
2018-09-19 22:52 METAR KLCI 200252Z AUTO 08008KT 10SM BKN022 BKN035 OVC050 16/12 A3012 RMK AO2
                 PWINO =
2018-09-19 22:39 METAR KLCI 200239Z AUTO 07008KT 10SM SCT022 OVC035 16/12 A3013 RMK AO2 PWINO =
2018-09-19 21:56 METAR KLCI 200156Z AUTO 07009KT 10SM SCT021 OVC028 16/12 A3011 RMK AO2 SLP214
                 T01560117 PWINO =
2018-09-19 21:17 METAR KLCI 200117Z AUTO 07009KT 10SM BKN019 BKN024 OVC034 16/12 A3011 RMK AO2
                 PWINO =
2018-09-19 20:56 METAR KLCI 200056Z AUTO 06007KT 10SM SCT019 SCT035 OVC049 16/12 A3011 RMK AO2
                 SLP212 T01610122 PWINO =
2018-09-19 19:56 METAR KLCI 192356Z AUTO 08006KT 10SM SCT030 BKN036 OVC047 16/13 A3008 RMK AO2
                 SLP204 T01610128 10178 20156 51022 PWINO =
2018-09-19 18:56 METAR KLCI 192256Z AUTO 09005KT 10SM SCT022 BKN027 OVC047 16/13 A3007 RMK AO2
                 SLP200 T01610133 PWINO =
2018-09-19 17:56 METAR KLCI 192156Z AUTO 07008KT 10SM OVC019 16/13 A3004 RMK AO2 SLP188 T01610133
                 PWINO =
2018-09-19 16:56 METAR KLCI 192056Z AUTO 05006KT 10SM OVC019 17/13 A3002 RMK AO2 SLP180 T01670133
                 53010 PWINO =
2018-09-19 15:56 METAR KLCI 191956Z AUTO 07008KT 10SM OVC019 17/13 A3000 RMK AO2 SLP171 T01720133
                 PWINO =
2018-09-19 14:56 METAR KLCI 191856Z AUTO 07007KT 10SM BKN021 OVC048 17/14 A2999 RMK AO2 SLP170
                 T01720139 PWINO =
2018-09-19 13:56 METAR KLCI 191756Z AUTO 08008KT 10SM FEW014 BKN022 OVC045 18/14 A2999 RMK AO2
                 SLP170 T01780139 10178 20150 50000 PWINO =
2018-09-19 12:56 METAR KLCI 191656Z AUTO 08009KT 10SM OVC016 17/14 A2999 RMK AO2 SLP171 T01720139
                 PWINO =
2018-09-19 12:47 METAR KLCI 191647Z AUTO 05006KT 10SM OVC016 17/14 A2999 RMK AO2 PWINO =

Support USWX by starting your Amazon purchase here.